createdAt,value
2018-06-04T00:00:11.599Z,98.60
2018-06-04T00:02:40.831Z,98.50
2018-06-04T00:05:10.073Z,98.40
2018-06-04T00:07:39.333Z,98.40
2018-06-04T00:10:08.593Z,98.50
2018-06-04T00:12:37.864Z,98.80
2018-06-04T00:15:07.152Z,99.10
2018-06-04T00:17:36.474Z,99.40
2018-06-04T00:20:06.096Z,99.30
2018-06-04T00:22:35.332Z,99.20
2018-06-04T00:25:04.758Z,99.60
2018-06-04T00:27:34.040Z,99.30
2018-06-04T00:30:03.287Z,99.40
2018-06-04T00:32:32.560Z,99.40
2018-06-04T00:35:01.810Z,99.70
2018-06-04T00:37:31.067Z,99.90
2018-06-04T00:40:00.345Z,99.90
2018-06-04T00:42:29.588Z,99.90
2018-06-04T00:44:58.867Z,99.90
2018-06-04T00:47:28.098Z,99.90
2018-06-04T00:49:57.393Z,99.90
2018-06-04T00:52:26.627Z,99.90
2018-06-04T00:54:55.951Z,99.90
2018-06-04T00:57:25.266Z,99.90
2018-06-04T00:59:54.547Z,99.90
2018-06-04T01:02:23.759Z,99.70
2018-06-04T01:04:53.028Z,99.70
2018-06-04T01:07:22.315Z,99.60
2018-06-04T01:09:51.593Z,99.60
2018-06-04T01:12:20.874Z,99.90
2018-06-04T01:14:50.178Z,99.90
2018-06-04T01:17:19.672Z,99.90
2018-06-04T01:19:48.969Z,99.90
2018-06-04T01:22:18.224Z,99.90
2018-06-04T01:24:47.504Z,99.90
2018-06-04T01:27:16.829Z,99.90
2018-06-04T01:29:46.083Z,99.90
2018-06-04T01:32:15.423Z,99.90
2018-06-04T01:34:44.681Z,99.90
2018-06-04T01:37:13.971Z,99.90
2018-06-04T01:39:43.261Z,99.90
2018-06-04T01:42:12.523Z,99.90
2018-06-04T01:44:41.811Z,99.90
2018-06-04T01:47:11.117Z,99.90
2018-06-04T01:49:40.396Z,99.90
2018-06-04T01:52:09.675Z,99.90
2018-06-04T01:54:38.969Z,99.90
2018-06-04T01:59:37.067Z,99.90
2018-06-04T02:02:06.306Z,99.90
2018-06-04T02:04:35.576Z,99.90
2018-06-04T02:07:04.930Z,99.90
2018-06-04T02:09:34.156Z,99.90
2018-06-04T02:12:03.435Z,99.90
2018-06-04T02:14:32.743Z,99.90
2018-06-04T02:17:01.968Z,99.90
2018-06-04T02:19:31.236Z,99.90
2018-06-04T02:22:00.528Z,99.90
2018-06-04T02:24:29.956Z,99.90
2018-06-04T02:26:59.199Z,99.90
2018-06-04T02:29:28.435Z,99.90
2018-06-04T02:31:57.904Z,99.90
2018-06-04T02:34:27.115Z,99.90
2018-06-04T02:36:56.436Z,99.90
2018-06-04T02:39:25.778Z,99.90
2018-06-04T02:41:55.043Z,99.90
2018-06-04T02:44:24.297Z,99.90
2018-06-04T02:46:53.616Z,99.90
2018-06-04T02:49:22.928Z,99.90
2018-06-04T02:51:52.843Z,99.90
2018-06-04T02:54:22.204Z,99.90
2018-06-04T02:56:51.460Z,99.90
2018-06-04T02:59:20.761Z,99.90
2018-06-04T03:01:51.081Z,99.90
2018-06-04T03:04:20.342Z,99.90
2018-06-04T03:06:49.667Z,99.90
2018-06-04T03:09:18.933Z,99.90
2018-06-04T03:11:48.183Z,99.90
2018-06-04T03:14:18.045Z,99.90
2018-06-04T03:19:17.428Z,99.90
2018-06-04T03:21:46.698Z,99.90
2018-06-04T03:24:15.929Z,99.90
2018-06-04T03:26:45.834Z,99.90
2018-06-04T03:29:15.116Z,99.90
2018-06-04T03:31:44.421Z,99.90
2018-06-04T03:34:13.703Z,99.90
2018-06-04T03:36:42.964Z,99.90
2018-06-04T03:39:12.321Z,99.90
2018-06-04T03:41:41.553Z,99.90
2018-06-04T03:44:10.886Z,99.90
2018-06-04T03:46:40.248Z,99.90
2018-06-04T03:49:10.186Z,99.90
2018-06-04T03:51:39.465Z,99.90
2018-06-04T03:54:08.724Z,99.90
2018-06-04T03:56:37.955Z,99.90
2018-06-04T03:59:07.357Z,99.90
2018-06-04T04:01:36.635Z,99.90
2018-06-04T04:04:05.905Z,99.90
2018-06-04T04:06:35.173Z,99.90
2018-06-04T04:09:06.578Z,99.90
2018-06-04T04:11:35.888Z,99.90
2018-06-04T04:14:05.985Z,99.90
2018-06-04T04:16:37.789Z,99.90
2018-06-04T04:19:07.023Z,99.90
2018-06-04T04:21:36.285Z,99.90
2018-06-04T04:24:05.606Z,99.90
2018-06-04T04:26:34.922Z,99.90
2018-06-04T04:29:04.254Z,99.90
2018-06-04T04:31:33.492Z,99.90
2018-06-04T04:34:02.733Z,99.90
2018-06-04T04:36:31.971Z,99.90
2018-06-04T04:39:01.173Z,99.90
2018-06-04T04:41:30.449Z,99.90
2018-06-04T04:43:59.664Z,99.90
2018-06-04T04:46:28.941Z,99.90
2018-06-04T04:48:58.141Z,99.90
2018-06-04T04:51:27.357Z,99.90
2018-06-04T04:53:56.640Z,99.90
2018-06-04T04:56:26.009Z,99.90
2018-06-04T04:58:55.246Z,99.90
2018-06-04T05:01:24.570Z,99.90
2018-06-04T05:03:53.832Z,99.90
2018-06-04T05:06:23.179Z,99.90
2018-06-04T05:08:52.405Z,99.90
2018-06-04T05:11:21.672Z,99.90
2018-06-04T05:13:50.987Z,99.90
2018-06-04T05:16:20.228Z,99.90
2018-06-04T05:18:49.741Z,99.90
2018-06-04T05:21:18.948Z,99.90
2018-06-04T05:23:48.256Z,99.90
2018-06-04T05:26:17.748Z,99.90
2018-06-04T05:28:47.050Z,99.90
2018-06-04T05:31:16.343Z,99.90
2018-06-04T05:33:45.598Z,99.90
2018-06-04T05:36:14.801Z,99.90
2018-06-04T05:38:44.060Z,99.90
2018-06-04T05:41:13.596Z,99.90
2018-06-04T05:43:43.368Z,99.80
2018-06-04T05:46:13.228Z,99.60
2018-06-04T05:48:42.484Z,99.30
2018-06-04T05:51:11.772Z,99.10
2018-06-04T05:53:41.015Z,98.90
2018-06-04T05:56:10.252Z,98.80
2018-06-04T05:58:39.456Z,98.50
2018-06-04T06:01:08.678Z,98.50
2018-06-04T06:03:37.960Z,97.70
2018-06-04T06:06:07.248Z,97.60
2018-06-04T06:08:36.619Z,97.40
2018-06-04T06:11:05.889Z,97.00
2018-06-04T06:13:35.213Z,97.00
2018-06-04T06:16:04.561Z,96.70
2018-06-04T06:18:33.872Z,96.50
2018-06-04T06:21:03.080Z,96.10
2018-06-04T06:23:32.341Z,95.60
2018-06-04T06:26:01.580Z,95.50
2018-06-04T06:28:31.600Z,95.10
2018-06-04T06:31:02.013Z,95.20
2018-06-04T06:33:31.409Z,94.80
2018-06-04T06:36:00.701Z,94.60
2018-06-04T06:38:30.081Z,93.90
2018-06-04T06:40:59.305Z,94.20
2018-06-04T06:43:28.619Z,94.00
2018-06-04T06:45:57.900Z,93.70
2018-06-04T06:48:27.558Z,93.10
2018-06-04T06:50:56.880Z,92.70
2018-06-04T06:53:26.204Z,92.60
2018-06-04T06:55:55.556Z,92.30
2018-06-04T06:58:24.863Z,92.30
2018-06-04T07:00:54.153Z,91.60
2018-06-04T07:03:23.441Z,91.30
2018-06-04T07:05:52.716Z,91.30
2018-06-04T07:08:22.063Z,90.70
2018-06-04T07:10:51.344Z,90.20
2018-06-04T07:13:20.697Z,90.30
2018-06-04T07:15:50.020Z,89.60
2018-06-04T07:18:19.300Z,88.40
2018-06-04T07:20:48.536Z,87.40
2018-06-04T07:23:18.491Z,86.80
2018-06-04T07:25:47.968Z,86.80
2018-06-04T07:28:17.322Z,87.20
2018-06-04T07:30:46.621Z,86.60
2018-06-04T07:33:15.915Z,85.50
2018-06-04T07:35:45.227Z,85.80
2018-06-04T07:38:14.648Z,84.50
2018-06-04T07:40:43.865Z,82.80
2018-06-04T07:43:13.121Z,82.50
2018-06-04T07:45:42.313Z,80.90
2018-06-04T07:48:11.563Z,80.50
2018-06-04T07:50:40.841Z,80.20
2018-06-04T07:53:10.181Z,79.30
2018-06-04T07:55:39.477Z,78.10
2018-06-04T07:58:08.759Z,79.50
2018-06-04T08:00:37.968Z,77.70
2018-06-04T08:05:36.337Z,78.00
2018-06-04T08:08:05.948Z,76.80
2018-06-04T08:10:35.263Z,75.10
2018-06-04T08:13:04.576Z,72.90
2018-06-04T08:15:33.872Z,75.10
2018-06-04T08:18:03.198Z,74.60
2018-06-04T08:20:32.364Z,74.00
2018-06-04T08:23:01.661Z,73.70
2018-06-04T08:25:31.971Z,72.80
2018-06-04T08:28:01.955Z,72.70
2018-06-04T08:30:31.216Z,70.00
2018-06-04T08:33:00.467Z,69.30
2018-06-04T08:35:29.738Z,68.90
2018-06-04T08:37:59.841Z,68.70
2018-06-04T08:40:29.118Z,69.00
2018-06-04T08:42:59.113Z,67.20
2018-06-04T08:45:28.949Z,68.40
2018-06-04T08:47:58.297Z,66.60
2018-06-04T08:50:27.571Z,67.70
2018-06-04T08:52:56.869Z,67.00
2018-06-04T08:55:26.140Z,66.50
2018-06-04T08:57:56.123Z,67.30
2018-06-04T09:00:25.977Z,65.50
2018-06-04T09:02:55.373Z,66.20
2018-06-04T09:05:24.667Z,65.30
2018-06-04T09:07:53.944Z,68.20
2018-06-04T09:10:23.187Z,66.90
2018-06-04T09:12:53.426Z,66.90
2018-06-04T09:15:22.779Z,64.10
2018-06-04T09:17:52.093Z,63.70
2018-06-04T09:20:22.060Z,65.00
2018-06-04T09:22:51.303Z,64.80
2018-06-04T09:25:20.617Z,64.70
2018-06-04T09:27:49.884Z,63.50
2018-06-04T09:30:19.169Z,63.60
2018-06-04T09:32:49.017Z,63.70
2018-06-04T09:35:18.988Z,64.10
2018-06-04T09:37:48.249Z,63.60
2018-06-04T09:40:17.513Z,62.70
2018-06-04T09:42:46.781Z,64.40
2018-06-04T09:45:16.087Z,64.70
2018-06-04T09:47:45.404Z,64.00
2018-06-04T09:50:14.681Z,63.70
2018-06-04T09:52:43.977Z,64.40
2018-06-04T09:55:14.066Z,66.20
2018-06-04T09:57:43.412Z,66.00
2018-06-04T10:00:16.882Z,62.20
2018-06-04T10:02:46.256Z,63.70
2018-06-04T10:05:15.975Z,62.30
2018-06-04T10:07:45.223Z,61.60
2018-06-04T10:10:14.624Z,61.30
2018-06-04T10:12:43.928Z,60.40
2018-06-04T10:15:14.131Z,61.40
2018-06-04T10:17:43.397Z,62.70
2018-06-04T10:20:13.295Z,62.50
2018-06-04T10:22:42.590Z,63.40
2018-06-04T10:25:12.172Z,63.80
2018-06-04T10:27:41.424Z,61.40
2018-06-04T10:30:11.519Z,59.90
2018-06-04T10:32:40.779Z,59.90
2018-06-04T10:35:10.041Z,60.00
2018-06-04T10:37:39.256Z,60.00
2018-06-04T10:40:08.558Z,61.80
2018-06-04T10:42:37.769Z,62.20
2018-06-04T10:45:07.063Z,62.30
2018-06-04T10:47:36.364Z,61.30
2018-06-04T10:50:05.641Z,62.20
2018-06-04T10:52:34.916Z,63.50
2018-06-04T10:55:04.494Z,63.60
2018-06-04T10:57:33.942Z,61.70
2018-06-04T11:00:03.351Z,62.80
2018-06-04T11:02:33.605Z,63.00
2018-06-04T11:05:03.639Z,63.10
2018-06-04T11:07:32.889Z,63.50
2018-06-04T11:10:02.171Z,67.00
2018-06-04T11:12:31.428Z,66.00
2018-06-04T11:15:00.797Z,63.40
2018-06-04T11:17:30.068Z,63.30
2018-06-04T11:19:59.340Z,66.40
2018-06-04T11:22:28.737Z,62.10
2018-06-04T11:24:58.080Z,60.90
2018-06-04T11:27:27.339Z,60.10
2018-06-04T11:29:56.639Z,58.70
2018-06-04T11:32:27.145Z,59.30
2018-06-04T11:34:56.704Z,59.10
2018-06-04T11:37:26.750Z,58.30
2018-06-04T11:39:56.012Z,58.00
2018-06-04T11:42:25.339Z,58.20
2018-06-04T11:44:54.967Z,58.60
2018-06-04T11:47:24.586Z,58.90
2018-06-04T11:49:53.872Z,60.70
2018-06-04T11:52:23.166Z,62.20
2018-06-04T11:54:52.507Z,61.90
2018-06-04T11:57:21.798Z,62.70
2018-06-04T11:59:51.071Z,59.90
2018-06-04T12:02:20.379Z,58.60
2018-06-04T12:04:50.340Z,59.60
2018-06-04T12:07:19.719Z,60.20
2018-06-04T12:09:48.950Z,61.30
2018-06-04T12:12:18.209Z,61.30
2018-06-04T12:14:47.563Z,60.50
2018-06-04T12:17:16.856Z,60.90
2018-06-04T12:19:46.079Z,61.70
2018-06-04T12:22:15.402Z,59.00
2018-06-04T12:24:44.637Z,60.00
2018-06-04T12:27:14.037Z,60.40
2018-06-04T12:29:43.359Z,60.80
2018-06-04T12:32:12.696Z,61.40
2018-06-04T12:34:41.925Z,61.20
2018-06-04T12:37:11.189Z,61.60
2018-06-04T12:39:40.479Z,61.30
2018-06-04T12:42:09.763Z,62.20
2018-06-04T12:44:39.047Z,62.40
2018-06-04T12:47:08.441Z,64.50
2018-06-04T12:49:38.920Z,64.70
2018-06-04T12:52:08.213Z,64.50
2018-06-04T12:54:37.696Z,64.70
2018-06-04T12:57:06.988Z,65.20
2018-06-04T12:59:36.377Z,63.10
2018-06-04T13:02:05.718Z,64.20
2018-06-04T13:04:34.996Z,65.00
2018-06-04T13:07:04.288Z,64.50
2018-06-04T13:09:33.583Z,64.30
2018-06-04T13:12:02.946Z,64.10
2018-06-04T13:14:32.257Z,62.20
2018-06-04T13:17:01.541Z,59.70
2018-06-04T13:19:30.843Z,59.80
2018-06-04T13:22:00.174Z,59.40
2018-06-04T13:24:29.465Z,60.50
2018-06-04T13:26:58.966Z,60.60
2018-06-04T13:29:28.387Z,61.00
2018-06-04T13:31:57.638Z,60.80
2018-06-04T13:34:26.917Z,59.10
2018-06-04T13:36:56.364Z,60.30
2018-06-04T13:39:25.693Z,59.00
2018-06-04T13:41:54.944Z,58.10
2018-06-04T13:44:24.273Z,58.40
2018-06-04T13:46:53.668Z,59.30
2018-06-04T13:49:23.277Z,59.80
2018-06-04T13:51:52.875Z,60.20
2018-06-04T13:54:22.322Z,60.50
2018-06-04T13:56:51.597Z,58.30
2018-06-04T13:59:21.443Z,58.90
2018-06-04T14:01:50.836Z,59.60
2018-06-04T14:04:20.122Z,58.50
2018-06-04T14:06:49.584Z,58.80
2018-06-04T14:09:19.527Z,59.40
2018-06-04T14:11:48.764Z,60.00
2018-06-04T14:14:18.047Z,59.40
2018-06-04T14:16:47.324Z,59.60
2018-06-04T14:19:16.672Z,60.50
2018-06-04T14:21:45.971Z,62.10
2018-06-04T14:24:20.467Z,62.80
2018-06-04T14:26:49.679Z,63.70
2018-06-04T14:29:18.930Z,64.70
2018-06-04T14:31:48.552Z,66.40
2018-06-04T14:34:17.916Z,67.40
2018-06-04T14:36:47.246Z,68.00
2018-06-04T14:39:17.140Z,68.70
2018-06-04T14:41:46.423Z,70.30
2018-06-04T14:44:15.773Z,71.70
2018-06-04T14:46:45.058Z,70.70
2018-06-04T14:49:14.437Z,70.20
2018-06-04T14:51:43.715Z,70.50
2018-06-04T14:54:13.031Z,68.70
2018-06-04T14:56:42.251Z,69.50
2018-06-04T14:59:11.559Z,68.50
2018-06-04T15:01:40.958Z,68.70
2018-06-04T15:04:10.251Z,69.00
2018-06-04T15:06:39.536Z,69.70
2018-06-04T15:09:09.186Z,70.60
2018-06-04T15:11:38.407Z,70.30
2018-06-04T15:14:08.264Z,69.60
2018-06-04T15:16:37.493Z,69.90
2018-06-04T15:19:06.807Z,70.30
2018-06-04T15:21:36.243Z,70.80
2018-06-04T15:24:05.483Z,70.90
2018-06-04T15:26:34.824Z,71.00
2018-06-04T15:29:04.526Z,70.60
2018-06-04T15:31:33.975Z,71.10
2018-06-04T15:34:03.231Z,71.30
2018-06-04T15:36:32.607Z,71.40
2018-06-04T15:39:01.932Z,71.70
2018-06-04T15:41:31.431Z,71.80
2018-06-04T15:44:00.760Z,71.70
2018-06-04T15:46:30.100Z,71.60
2018-06-04T15:48:59.390Z,72.30
2018-06-04T15:51:28.670Z,73.00
2018-06-04T15:53:57.964Z,73.10
2018-06-04T15:56:27.256Z,73.20
2018-06-04T15:58:56.500Z,73.10
2018-06-04T16:01:25.768Z,73.20
2018-06-04T16:03:55.090Z,73.30
2018-06-04T16:06:24.391Z,73.60
2018-06-04T16:08:54.385Z,73.60
2018-06-04T16:11:23.711Z,74.00
2018-06-04T16:13:52.987Z,74.20
2018-06-04T16:16:22.272Z,74.60
2018-06-04T16:18:52.228Z,74.70
2018-06-04T16:21:21.986Z,74.70
2018-06-04T16:23:51.424Z,75.10
2018-06-04T16:26:20.696Z,75.10
2018-06-04T16:28:49.954Z,75.40
2018-06-04T16:31:19.249Z,75.70
2018-06-04T16:33:48.548Z,76.30
2018-06-04T16:36:17.860Z,76.50
2018-06-04T16:38:47.058Z,77.10
2018-06-04T16:41:16.392Z,77.60
2018-06-04T16:43:45.722Z,77.50
2018-06-04T16:46:15.045Z,77.70
2018-06-04T16:48:44.295Z,78.60
2018-06-04T16:51:13.591Z,79.20
2018-06-04T16:53:42.899Z,79.30
2018-06-04T16:56:12.923Z,79.80
2018-06-04T16:58:42.204Z,79.80
2018-06-04T17:01:11.532Z,79.70
2018-06-04T17:03:40.896Z,79.80
2018-06-04T17:06:10.324Z,79.70
2018-06-04T17:08:39.624Z,79.90
2018-06-04T17:11:09.792Z,80.00
2018-06-04T17:13:39.043Z,80.40
2018-06-04T17:16:08.361Z,80.10
2018-06-04T17:18:37.644Z,80.50
2018-06-04T17:21:06.939Z,81.00
2018-06-04T17:23:36.217Z,81.10
2018-06-04T17:26:05.531Z,81.80
2018-06-04T17:28:34.898Z,81.90
2018-06-04T17:31:04.018Z,82.60
2018-06-04T17:33:33.483Z,82.40
2018-06-04T17:36:02.817Z,82.40
2018-06-04T17:38:32.059Z,82.50
2018-06-04T17:41:01.375Z,83.30
2018-06-04T17:43:30.678Z,83.50
2018-06-04T17:46:00.120Z,83.90
2018-06-04T17:48:29.432Z,84.00
2018-06-04T17:50:58.708Z,84.70
2018-06-04T17:53:27.947Z,84.60
2018-06-04T17:55:57.192Z,84.30
2018-06-04T17:58:26.682Z,85.00
2018-06-04T18:00:55.939Z,85.10
2018-06-04T18:03:25.239Z,85.00
2018-06-04T18:05:54.571Z,85.70
2018-06-04T18:08:23.760Z,85.80
2018-06-04T18:10:53.764Z,86.10
2018-06-04T18:13:23.080Z,86.10
2018-06-04T18:15:52.389Z,86.50
2018-06-04T18:18:21.743Z,86.60
2018-06-04T18:20:51.010Z,86.80
2018-06-04T18:25:49.256Z,87.20
2018-06-04T18:28:18.568Z,87.60
2018-06-04T18:30:47.871Z,87.90
2018-06-04T18:33:17.199Z,88.00
2018-06-04T18:35:46.454Z,88.70
2018-06-04T18:38:15.866Z,88.80
2018-06-04T18:40:46.276Z,89.20
2018-06-04T18:43:15.642Z,89.30
2018-06-04T18:45:45.112Z,89.20
2018-06-04T18:48:14.772Z,89.50
2018-06-04T18:50:44.102Z,89.70
2018-06-04T18:53:13.413Z,90.10
2018-06-04T18:55:42.657Z,90.30
2018-06-04T18:58:12.016Z,90.40
2018-06-04T19:00:41.355Z,90.40
2018-06-04T19:03:10.615Z,90.50
2018-06-04T19:05:39.922Z,90.80
2018-06-04T19:08:09.224Z,90.70
2018-06-04T19:10:38.540Z,91.00
2018-06-04T19:13:07.914Z,91.20
2018-06-04T19:15:37.184Z,91.20
2018-06-04T19:18:07.203Z,91.30
2018-06-04T19:20:36.522Z,91.70
2018-06-04T19:23:05.908Z,91.80
2018-06-04T19:25:35.248Z,91.90
2018-06-04T19:28:04.698Z,92.00
2018-06-04T19:30:34.396Z,92.40
2018-06-04T19:33:03.796Z,92.30
2018-06-04T19:35:33.289Z,92.50
2018-06-04T19:38:02.602Z,92.50
2018-06-04T19:40:32.203Z,92.60
2018-06-04T19:43:01.501Z,92.90
2018-06-04T19:45:30.828Z,93.10
2018-06-04T19:48:00.186Z,93.20
2018-06-04T19:50:29.467Z,93.20
2018-06-04T19:52:59.676Z,93.50
2018-06-04T19:55:28.974Z,93.60
2018-06-04T19:57:58.328Z,94.10
2018-06-04T20:00:27.608Z,94.10
2018-06-04T20:02:56.920Z,94.30
2018-06-04T20:05:26.236Z,94.50
2018-06-04T20:07:55.573Z,94.50
2018-06-04T20:10:24.840Z,94.70
2018-06-04T20:12:54.600Z,94.90
2018-06-04T20:15:23.991Z,94.80
2018-06-04T20:17:53.333Z,95.00
2018-06-04T20:20:22.585Z,95.30
2018-06-04T20:22:51.889Z,95.30
2018-06-04T20:25:21.257Z,95.40
2018-06-04T20:27:50.933Z,95.50
2018-06-04T20:30:20.371Z,95.50
2018-06-04T20:32:49.689Z,95.80
2018-06-04T20:35:18.994Z,95.90
2018-06-04T20:37:48.454Z,96.20
2018-06-04T20:40:17.740Z,96.20
2018-06-04T20:42:47.199Z,96.20
2018-06-04T20:45:16.684Z,96.20
2018-06-04T20:47:46.021Z,96.30
2018-06-04T20:50:15.877Z,96.40
2018-06-04T20:52:45.247Z,96.40
2018-06-04T20:55:14.523Z,96.20
2018-06-04T20:57:43.824Z,96.50
2018-06-04T21:00:13.420Z,96.70
2018-06-04T21:02:42.768Z,96.70
2018-06-04T21:05:12.707Z,96.90
2018-06-04T21:07:42.024Z,97.10
2018-06-04T21:10:11.412Z,97.20
2018-06-04T21:12:40.856Z,97.70
2018-06-04T21:15:10.265Z,97.60
2018-06-04T21:17:39.549Z,97.70
2018-06-04T21:20:09.073Z,97.90
2018-06-04T21:22:38.317Z,97.80
2018-06-04T21:25:07.637Z,97.90
2018-06-04T21:27:36.962Z,97.80
2018-06-04T21:30:06.292Z,97.70
2018-06-04T21:32:35.583Z,97.50
2018-06-04T21:35:04.956Z,97.70
2018-06-04T21:37:34.249Z,98.00
2018-06-04T21:40:03.628Z,97.90
2018-06-04T21:42:32.895Z,97.70
2018-06-04T21:45:02.249Z,97.80
2018-06-04T21:47:31.526Z,97.90
2018-06-04T21:52:29.976Z,98.10
2018-06-04T21:54:59.308Z,98.30
2018-06-04T21:57:28.571Z,98.20
2018-06-04T21:59:58.660Z,98.70
2018-06-04T22:04:56.745Z,98.70
2018-06-04T22:07:26.016Z,98.50
2018-06-04T22:09:55.331Z,98.50
2018-06-04T22:12:24.599Z,98.50
2018-06-04T22:14:53.943Z,98.90
2018-06-04T22:17:23.259Z,98.90
2018-06-04T22:19:53.319Z,99.00
2018-06-04T22:22:22.576Z,98.80
2018-06-04T22:24:51.916Z,98.60
2018-06-04T22:27:21.175Z,98.90
2018-06-04T22:29:50.464Z,98.90
2018-06-04T22:32:19.795Z,99.10
2018-06-04T22:34:49.029Z,98.80
2018-06-04T22:37:18.286Z,98.80
2018-06-04T22:39:47.560Z,98.90
2018-06-04T22:42:16.818Z,99.10
2018-06-04T22:44:46.164Z,99.40
2018-06-04T22:47:15.580Z,99.40
2018-06-04T22:49:44.860Z,99.40
2018-06-04T22:52:14.213Z,99.30
2018-06-04T22:54:43.549Z,99.50
2018-06-04T22:57:12.818Z,99.50
2018-06-04T22:59:42.447Z,99.70
2018-06-04T23:02:12.040Z,99.90
2018-06-04T23:04:41.452Z,99.90
2018-06-04T23:07:10.759Z,99.90
2018-06-04T23:09:39.977Z,99.90
2018-06-04T23:12:09.340Z,99.90
2018-06-04T23:14:38.683Z,99.90
2018-06-04T23:17:08.013Z,99.90
2018-06-04T23:19:37.255Z,99.90
2018-06-04T23:22:06.556Z,99.90
2018-06-04T23:24:35.867Z,99.80
2018-06-04T23:27:05.408Z,99.90
2018-06-04T23:29:35.316Z,99.90
2018-06-04T23:32:04.601Z,99.90
2018-06-04T23:34:33.903Z,99.90
2018-06-04T23:37:03.808Z,99.90
2018-06-04T23:39:33.128Z,99.90
2018-06-04T23:42:02.466Z,99.90
2018-06-04T23:44:31.809Z,99.90
2018-06-04T23:47:01.606Z,99.90
2018-06-04T23:49:30.912Z,99.90
2018-06-04T23:52:00.214Z,99.90
2018-06-04T23:54:29.489Z,99.90
2018-06-04T23:56:58.739Z,99.90
2018-06-04T23:59:28.032Z,99.90
